Terminal Aerodrome Forecast
Issued by NWS

Home | Current Version | Previous Version | Graphics & Text | Print | Product List | Glossary On
Versions: 1 2 3 4 5 6 7 8 9 10 11 12
000
FTUS43 KMPX 260520
TAFRNH
TAF
KRNH 260520Z 2606/2706 04012KT 4SM -RA BR OVC008
     FM261600 35013G23KT P6SM VCSH OVC008
     FM262000 32010KT P6SM OVC010=

USA.gov is the U.S. government's official web portal to all federal, state and local government web resources and services.